sensor_id;sensor_type;location;lat;lon;timestamp;temperature;humidity
15394;DHT22;7795;47.986;11.868;2022-09-17T00:00:55;14.50;79.40
15394;DHT22;7795;47.986;11.868;2022-09-17T00:03:21;14.50;79.40
15394;DHT22;7795;47.986;11.868;2022-09-17T00:05:49;14.50;79.40
15394;DHT22;7795;47.986;11.868;2022-09-17T00:08:15;14.50;79.40
15394;DHT22;7795;47.986;11.868;2022-09-17T00:10:42;14.50;79.40
15394;DHT22;7795;47.986;11.868;2022-09-17T00:13:08;14.50;79.30
15394;DHT22;7795;47.986;11.868;2022-09-17T00:15:38;14.50;79.40
15394;DHT22;7795;47.986;11.868;2022-09-17T00:18:04;14.50;79.60
15394;DHT22;7795;47.986;11.868;2022-09-17T00:20:30;14.40;79.60
15394;DHT22;7795;47.986;11.868;2022-09-17T00:22:57;14.40;79.60
15394;DHT22;7795;47.986;11.868;2022-09-17T00:25:23;14.40;79.70
15394;DHT22;7795;47.986;11.868;2022-09-17T00:27:49;14.40;79.70
15394;DHT22;7795;47.986;11.868;2022-09-17T00:30:15;14.40;79.80
15394;DHT22;7795;47.986;11.868;2022-09-17T00:32:41;14.40;79.80
15394;DHT22;7795;47.986;11.868;2022-09-17T00:35:07;14.30;79.90
15394;DHT22;7795;47.986;11.868;2022-09-17T00:37:32;14.30;79.90
15394;DHT22;7795;47.986;11.868;2022-09-17T00:39:59;14.30;80.00
15394;DHT22;7795;47.986;11.868;2022-09-17T00:42:25;14.30;80.10
15394;DHT22;7795;47.986;11.868;2022-09-17T00:44:53;14.30;80.10
15394;DHT22;7795;47.986;11.868;2022-09-17T00:47:26;14.30;80.20
15394;DHT22;7795;47.986;11.868;2022-09-17T00:50:00;14.30;80.40
15394;DHT22;7795;47.986;11.868;2022-09-17T00:52:30;14.20;80.20
15394;DHT22;7795;47.986;11.868;2022-09-17T00:55:02;14.30;80.30
15394;DHT22;7795;47.986;11.868;2022-09-17T00:57:30;14.20;80.20
15394;DHT22;7795;47.986;11.868;2022-09-17T00:59:56;14.20;80.20
15394;DHT22;7795;47.986;11.868;2022-09-17T01:02:22;14.20;80.20
15394;DHT22;7795;47.986;11.868;2022-09-17T01:04:49;14.20;80.10
15394;DHT22;7795;47.986;11.868;2022-09-17T01:07:23;14.20;80.00
15394;DHT22;7795;47.986;11.868;2022-09-17T01:09:55;14.20;80.20
15394;DHT22;7795;47.986;11.868;2022-09-17T01:12:47;14.20;80.20
15394;DHT22;7795;47.986;11.868;2022-09-17T01:15:23;14.20;80.50
15394;DHT22;7795;47.986;11.868;2022-09-17T01:18:02;14.20;80.30
15394;DHT22;7795;47.986;11.868;2022-09-17T01:21:01;14.20;80.30
15394;DHT22;7795;47.986;11.868;2022-09-17T01:23:59;14.20;80.30
15394;DHT22;7795;47.986;11.868;2022-09-17T01:26:52;14.20;80.30
15394;DHT22;7795;47.986;11.868;2022-09-17T01:29:35;14.10;80.00
15394;DHT22;7795;47.986;11.868;2022-09-17T01:32:08;14.10;80.00
15394;DHT22;7795;47.986;11.868;2022-09-17T01:34:42;14.10;79.90
15394;DHT22;7795;47.986;11.868;2022-09-17T01:37:12;14.10;79.80
15394;DHT22;7795;47.986;11.868;2022-09-17T01:39:43;14.10;79.70
15394;DHT22;7795;47.986;11.868;2022-09-17T01:42:17;14.10;79.70
15394;DHT22;7795;47.986;11.868;2022-09-17T01:44:50;14.10;79.70
15394;DHT22;7795;47.986;11.868;2022-09-17T01:47:22;14.10;79.70
15394;DHT22;7795;47.986;11.868;2022-09-17T01:49:50;14.10;79.60
15394;DHT22;7795;47.986;11.868;2022-09-17T01:52:18;14.10;80.30
15394;DHT22;7795;47.986;11.868;2022-09-17T01:54:46;14.10;79.50
15394;DHT22;7795;47.986;11.868;2022-09-17T01:57:17;14.10;79.50
15394;DHT22;7795;47.986;11.868;2022-09-17T01:59:47;14.10;79.60
15394;DHT22;7795;47.986;11.868;2022-09-17T02:02:19;14.00;79.60
15394;DHT22;7795;47.986;11.868;2022-09-17T02:04:51;14.00;79.70
15394;DHT22;7795;47.986;11.868;2022-09-17T02:07:21;14.00;79.70
15394;DHT22;7795;47.986;11.868;2022-09-17T02:09:50;14.00;80.50
15394;DHT22;7795;47.986;11.868;2022-09-17T02:12:24;14.00;79.90
15394;DHT22;7795;47.986;11.868;2022-09-17T02:14:54;14.00;79.80
15394;DHT22;7795;47.986;11.868;2022-09-17T02:17:26;14.00;79.70
15394;DHT22;7795;47.986;11.868;2022-09-17T02:19:54;14.00;79.70
15394;DHT22;7795;47.986;11.868;2022-09-17T02:22:24;13.90;79.60
15394;DHT22;7795;47.986;11.868;2022-09-17T02:25:00;13.90;79.60
15394;DHT22;7795;47.986;11.868;2022-09-17T02:27:36;13.90;79.70
15394;DHT22;7795;47.986;11.868;2022-09-17T02:30:05;13.90;79.90
15394;DHT22;7795;47.986;11.868;2022-09-17T02:32:32;13.80;79.90
15394;DHT22;7795;47.986;11.868;2022-09-17T02:34:58;13.80;79.90
15394;DHT22;7795;47.986;11.868;2022-09-17T02:37:24;13.80;80.00
15394;DHT22;7795;47.986;11.868;2022-09-17T02:39:49;13.80;79.90
15394;DHT22;7795;47.986;11.868;2022-09-17T02:42:21;13.80;80.00
15394;DHT22;7795;47.986;11.868;2022-09-17T02:44:58;13.80;80.10
15394;DHT22;7795;47.986;11.868;2022-09-17T02:47:50;13.80;80.20
15394;DHT22;7795;47.986;11.868;2022-09-17T02:50:29;13.70;80.30
15394;DHT22;7795;47.986;11.868;2022-09-17T02:53:09;13.70;80.30
15394;DHT22;7795;47.986;11.868;2022-09-17T02:55:41;13.70;81.00
15394;DHT22;7795;47.986;11.868;2022-09-17T02:58:18;13.80;80.40
15394;DHT22;7795;47.986;11.868;2022-09-17T03:00:46;13.80;80.40
15394;DHT22;7795;47.986;11.868;2022-09-17T03:03:18;13.70;80.30
15394;DHT22;7795;47.986;11.868;2022-09-17T03:05:47;13.70;80.30
15394;DHT22;7795;47.986;11.868;2022-09-17T03:08:13;13.70;80.30
15394;DHT22;7795;47.986;11.868;2022-09-17T03:10:40;13.70;80.30
15394;DHT22;7795;47.986;11.868;2022-09-17T03:13:06;13.70;80.20
15394;DHT22;7795;47.986;11.868;2022-09-17T03:15:32;13.70;80.20
15394;DHT22;7795;47.986;11.868;2022-09-17T03:17:57;13.70;80.20
15394;DHT22;7795;47.986;11.868;2022-09-17T03:20:25;13.60;80.00
15394;DHT22;7795;47.986;11.868;2022-09-17T03:22:51;13.60;80.00
15394;DHT22;7795;47.986;11.868;2022-09-17T03:25:16;13.60;79.90
15394;DHT22;7795;47.986;11.868;2022-09-17T03:27:42;13.60;79.80
15394;DHT22;7795;47.986;11.868;2022-09-17T03:30:08;13.60;80.10
15394;DHT22;7795;47.986;11.868;2022-09-17T03:32:34;13.50;79.70
15394;DHT22;7795;47.986;11.868;2022-09-17T03:35:00;13.50;79.60
15394;DHT22;7795;47.986;11.868;2022-09-17T03:37:27;13.50;79.60
15394;DHT22;7795;47.986;11.868;2022-09-17T03:39:53;13.40;79.50
15394;DHT22;7795;47.986;11.868;2022-09-17T03:42:19;13.40;79.50
15394;DHT22;7795;47.986;11.868;2022-09-17T03:44:45;13.40;79.40
15394;DHT22;7795;47.986;11.868;2022-09-17T03:47:10;13.30;79.30
15394;DHT22;7795;47.986;11.868;2022-09-17T03:49:37;13.30;79.30
15394;DHT22;7795;47.986;11.868;2022-09-17T03:52:02;13.30;79.30
15394;DHT22;7795;47.986;11.868;2022-09-17T03:54:30;13.20;79.20
15394;DHT22;7795;47.986;11.868;2022-09-17T03:56:55;13.20;79.20
15394;DHT22;7795;47.986;11.868;2022-09-17T03:59:22;13.10;79.90
15394;DHT22;7795;47.986;11.868;2022-09-17T04:01:48;13.10;79.20
15394;DHT22;7795;47.986;11.868;2022-09-17T04:04:13;13.10;79.20
15394;DHT22;7795;47.986;11.868;2022-09-17T04:06:39;13.00;79.20
15394;DHT22;7795;47.986;11.868;2022-09-17T04:09:05;13.00;79.20
15394;DHT22;7795;47.986;11.868;2022-09-17T04:11:32;12.90;79.20
15394;DHT22;7795;47.986;11.868;2022-09-17T04:13:58;12.90;79.20
15394;DHT22;7795;47.986;11.868;2022-09-17T04:16:24;12.90;79.30
15394;DHT22;7795;47.986;11.868;2022-09-17T04:18:49;12.90;79.40
15394;DHT22;7795;47.986;11.868;2022-09-17T04:21:15;12.90;79.20
15394;DHT22;7795;47.986;11.868;2022-09-17T04:23:41;12.80;79.20
15394;DHT22;7795;47.986;11.868;2022-09-17T04:26:06;12.80;79.20
15394;DHT22;7795;47.986;11.868;2022-09-17T04:28:34;12.80;79.20
15394;DHT22;7795;47.986;11.868;2022-09-17T04:30:59;12.80;79.50
15394;DHT22;7795;47.986;11.868;2022-09-17T04:33:25;12.80;79.50
15394;DHT22;7795;47.986;11.868;2022-09-17T04:35:51;12.80;80.40
15394;DHT22;7795;47.986;11.868;2022-09-17T04:38:18;12.90;79.70
15394;DHT22;7795;47.986;11.868;2022-09-17T04:40:45;12.80;79.50
15394;DHT22;7795;47.986;11.868;2022-09-17T04:43:11;12.80;79.50
15394;DHT22;7795;47.986;11.868;2022-09-17T04:45:38;12.90;79.70
15394;DHT22;7795;47.986;11.868;2022-09-17T04:48:04;12.80;79.60
15394;DHT22;7795;47.986;11.868;2022-09-17T04:50:30;12.80;79.50
15394;DHT22;7795;47.986;11.868;2022-09-17T04:52:56;12.80;79.50
15394;DHT22;7795;47.986;11.868;2022-09-17T04:55:22;12.80;79.50
15394;DHT22;7795;47.986;11.868;2022-09-17T04:57:49;12.80;79.60
15394;DHT22;7795;47.986;11.868;2022-09-17T05:00:16;12.80;79.50
15394;DHT22;7795;47.986;11.868;2022-09-17T05:02:45;12.80;79.50
15394;DHT22;7795;47.986;11.868;2022-09-17T05:05:11;12.80;79.50
15394;DHT22;7795;47.986;11.868;2022-09-17T05:07:38;12.80;79.50
15394;DHT22;7795;47.986;11.868;2022-09-17T05:10:04;12.80;79.50
15394;DHT22;7795;47.986;11.868;2022-09-17T05:12:30;12.80;79.50
15394;DHT22;7795;47.986;11.868;2022-09-17T05:14:56;12.80;79.50
15394;DHT22;7795;47.986;11.868;2022-09-17T05:17:22;12.70;79.30
15394;DHT22;7795;47.986;11.868;2022-09-17T05:19:49;12.70;79.30
15394;DHT22;7795;47.986;11.868;2022-09-17T05:22:15;12.70;79.40
15394;DHT22;7795;47.986;11.868;2022-09-17T05:24:40;12.70;79.40
15394;DHT22;7795;47.986;11.868;2022-09-17T05:27:08;12.70;79.50
15394;DHT22;7795;47.986;11.868;2022-09-17T05:29:33;12.70;79.70
15394;DHT22;7795;47.986;11.868;2022-09-17T05:31:59;12.70;79.80
15394;DHT22;7795;47.986;11.868;2022-09-17T05:34:25;12.70;79.90
15394;DHT22;7795;47.986;11.868;2022-09-17T05:36:52;12.70;79.90
15394;DHT22;7795;47.986;11.868;2022-09-17T05:39:17;12.70;79.90
15394;DHT22;7795;47.986;11.868;2022-09-17T05:41:45;12.70;80.00
15394;DHT22;7795;47.986;11.868;2022-09-17T05:44:11;12.60;80.00
15394;DHT22;7795;47.986;11.868;2022-09-17T05:46:37;12.70;80.00
15394;DHT22;7795;47.986;11.868;2022-09-17T05:49:03;12.70;80.10
15394;DHT22;7795;47.986;11.868;2022-09-17T05:51:29;12.70;80.10
15394;DHT22;7795;47.986;11.868;2022-09-17T05:53:57;12.70;80.20
15394;DHT22;7795;47.986;11.868;2022-09-17T05:56:23;12.70;81.10
15394;DHT22;7795;47.986;11.868;2022-09-17T05:58:48;12.70;80.40
15394;DHT22;7795;47.986;11.868;2022-09-17T06:01:14;12.70;80.40
15394;DHT22;7795;47.986;11.868;2022-09-17T06:03:41;12.70;80.50
15394;DHT22;7795;47.986;11.868;2022-09-17T06:06:06;12.70;80.50
15394;DHT22;7795;47.986;11.868;2022-09-17T06:08:33;12.70;80.50
15394;DHT22;7795;47.986;11.868;2022-09-17T06:11:04;12.70;80.60
15394;DHT22;7795;47.986;11.868;2022-09-17T06:13:30;12.70;80.70
15394;DHT22;7795;47.986;11.868;2022-09-17T06:15:55;12.70;80.60
15394;DHT22;7795;47.986;11.868;2022-09-17T06:18:21;12.70;80.60
15394;DHT22;7795;47.986;11.868;2022-09-17T06:20:54;12.80;80.70
15394;DHT22;7795;47.986;11.868;2022-09-17T06:23:20;12.80;80.50
15394;DHT22;7795;47.986;11.868;2022-09-17T06:25:50;12.80;80.40
15394;DHT22;7795;47.986;11.868;2022-09-17T06:28:18;12.80;80.30
15394;DHT22;7795;47.986;11.868;2022-09-17T06:30:43;12.80;80.10
15394;DHT22;7795;47.986;11.868;2022-09-17T06:33:09;12.80;80.20
15394;DHT22;7795;47.986;11.868;2022-09-17T06:35:35;12.80;80.30
15394;DHT22;7795;47.986;11.868;2022-09-17T06:38:03;12.80;80.40
15394;DHT22;7795;47.986;11.868;2022-09-17T06:40:29;12.80;80.40
15394;DHT22;7795;47.986;11.868;2022-09-17T06:42:56;12.80;80.30
15394;DHT22;7795;47.986;11.868;2022-09-17T06:45:23;12.80;80.30
15394;DHT22;7795;47.986;11.868;2022-09-17T06:47:49;12.80;80.40
15394;DHT22;7795;47.986;11.868;2022-09-17T06:50:15;12.80;80.20
15394;DHT22;7795;47.986;11.868;2022-09-17T06:52:47;12.90;80.20
15394;DHT22;7795;47.986;11.868;2022-09-17T06:55:13;12.90;80.10
15394;DHT22;7795;47.986;11.868;2022-09-17T06:57:38;12.90;80.10
15394;DHT22;7795;47.986;11.868;2022-09-17T07:00:05;12.90;80.10
15394;DHT22;7795;47.986;11.868;2022-09-17T07:02:33;12.90;80.10
15394;DHT22;7795;47.986;11.868;2022-09-17T07:04:58;13.00;80.20
15394;DHT22;7795;47.986;11.868;2022-09-17T07:07:24;13.00;80.20
15394;DHT22;7795;47.986;11.868;2022-09-17T07:09:50;13.00;79.90
15394;DHT22;7795;47.986;11.868;2022-09-17T07:12:18;13.00;79.80
15394;DHT22;7795;47.986;11.868;2022-09-17T07:14:43;13.00;79.70
15394;DHT22;7795;47.986;11.868;2022-09-17T07:17:09;13.00;79.70
15394;DHT22;7795;47.986;11.868;2022-09-17T07:19:36;13.00;79.80
15394;DHT22;7795;47.986;11.868;2022-09-17T07:22:03;13.00;79.80
15394;DHT22;7795;47.986;11.868;2022-09-17T07:24:29;13.00;79.80
15394;DHT22;7795;47.986;11.868;2022-09-17T07:26:54;13.00;79.90
15394;DHT22;7795;47.986;11.868;2022-09-17T07:29:20;13.00;79.90
15394;DHT22;7795;47.986;11.868;2022-09-17T07:31:47;13.00;79.90
15394;DHT22;7795;47.986;11.868;2022-09-17T07:34:13;13.00;79.90
15394;DHT22;7795;47.986;11.868;2022-09-17T07:36:42;13.10;80.00
15394;DHT22;7795;47.986;11.868;2022-09-17T07:39:08;13.10;79.90
15394;DHT22;7795;47.986;11.868;2022-09-17T07:41:35;13.10;79.80
15394;DHT22;7795;47.986;11.868;2022-09-17T07:44:01;13.10;79.50
15394;DHT22;7795;47.986;11.868;2022-09-17T07:46:27;13.10;79.40
15394;DHT22;7795;47.986;11.868;2022-09-17T07:48:52;13.10;79.30
15394;DHT22;7795;47.986;11.868;2022-09-17T07:51:20;13.10;79.30
15394;DHT22;7795;47.986;11.868;2022-09-17T07:53:50;13.10;79.20
15394;DHT22;7795;47.986;11.868;2022-09-17T07:56:16;13.10;79.10
15394;DHT22;7795;47.986;11.868;2022-09-17T07:58:41;13.10;78.90
15394;DHT22;7795;47.986;11.868;2022-09-17T08:01:08;13.10;78.80
15394;DHT22;7795;47.986;11.868;2022-09-17T08:03:34;13.10;78.70
15394;DHT22;7795;47.986;11.868;2022-09-17T08:06:01;13.10;78.70
15394;DHT22;7795;47.986;11.868;2022-09-17T08:08:29;13.20;78.60
15394;DHT22;7795;47.986;11.868;2022-09-17T08:11:00;13.20;78.30
15394;DHT22;7795;47.986;11.868;2022-09-17T08:13:26;13.20;78.10
15394;DHT22;7795;47.986;11.868;2022-09-17T08:15:51;13.20;78.40
15394;DHT22;7795;47.986;11.868;2022-09-17T08:18:17;13.30;78.50
15394;DHT22;7795;47.986;11.868;2022-09-17T08:20:43;13.30;78.40
15394;DHT22;7795;47.986;11.868;2022-09-17T08:23:09;13.30;78.20
15394;DHT22;7795;47.986;11.868;2022-09-17T08:25:34;13.40;78.20
15394;DHT22;7795;47.986;11.868;2022-09-17T08:28:02;13.40;78.20
15394;DHT22;7795;47.986;11.868;2022-09-17T08:30:27;13.40;78.10
15394;DHT22;7795;47.986;11.868;2022-09-17T08:32:54;13.40;77.90
15394;DHT22;7795;47.986;11.868;2022-09-17T08:35:20;13.50;77.90
15394;DHT22;7795;47.986;11.868;2022-09-17T08:37:46;13.50;77.90
15394;DHT22;7795;47.986;11.868;2022-09-17T08:40:16;13.50;78.70
15394;DHT22;7795;47.986;11.868;2022-09-17T08:42:50;13.60;77.80
15394;DHT22;7795;47.986;11.868;2022-09-17T08:45:20;13.60;77.70
15394;DHT22;7795;47.986;11.868;2022-09-17T08:47:46;13.60;77.80
15394;DHT22;7795;47.986;11.868;2022-09-17T08:50:15;13.60;77.90
15394;DHT22;7795;47.986;11.868;2022-09-17T08:52:53;13.70;77.70
15394;DHT22;7795;47.986;11.868;2022-09-17T08:55:31;13.80;77.70
15394;DHT22;7795;47.986;11.868;2022-09-17T08:58:12;13.80;77.70
15394;DHT22;7795;47.986;11.868;2022-09-17T09:00:46;13.90;77.60
15394;DHT22;7795;47.986;11.868;2022-09-17T09:03:25;13.90;77.10
15394;DHT22;7795;47.986;11.868;2022-09-17T09:05:53;14.00;77.00
15394;DHT22;7795;47.986;11.868;2022-09-17T09:08:29;14.10;77.80
15394;DHT22;7795;47.986;11.868;2022-09-17T09:10:57;14.10;75.90
15394;DHT22;7795;47.986;11.868;2022-09-17T09:13:28;14.20;76.20
15394;DHT22;7795;47.986;11.868;2022-09-17T09:15:59;14.20;75.90
15394;DHT22;7795;47.986;11.868;2022-09-17T09:18:28;14.30;75.80
15394;DHT22;7795;47.986;11.868;2022-09-17T09:21:06;14.30;75.60
15394;DHT22;7795;47.986;11.868;2022-09-17T09:23:39;14.30;75.30
15394;DHT22;7795;47.986;11.868;2022-09-17T09:26:16;14.40;75.40
15394;DHT22;7795;47.986;11.868;2022-09-17T09:28:58;14.40;74.60
15394;DHT22;7795;47.986;11.868;2022-09-17T09:34:22;14.40;74.20
15394;DHT22;7795;47.986;11.868;2022-09-17T09:36:49;14.30;74.50
15394;DHT22;7795;47.986;11.868;2022-09-17T09:39:20;14.30;74.30
15394;DHT22;7795;47.986;11.868;2022-09-17T09:41:50;14.30;74.60
15394;DHT22;7795;47.986;11.868;2022-09-17T09:44:18;14.20;74.00
15394;DHT22;7795;47.986;11.868;2022-09-17T09:50:00;14.20;74.00
15394;DHT22;7795;47.986;11.868;2022-09-17T09:52:41;14.20;74.00
15394;DHT22;7795;47.986;11.868;2022-09-17T09:55:27;14.20;75.10
15394;DHT22;7795;47.986;11.868;2022-09-17T09:58:02;14.10;74.50
15394;DHT22;7795;47.986;11.868;2022-09-17T10:00:30;14.10;74.30
15394;DHT22;7795;47.986;11.868;2022-09-17T10:03:02;14.10;74.30
15394;DHT22;7795;47.986;11.868;2022-09-17T10:05:29;14.10;74.30
15394;DHT22;7795;47.986;11.868;2022-09-17T10:07:56;14.10;74.60
15394;DHT22;7795;47.986;11.868;2022-09-17T10:10:22;14.10;74.80
15394;DHT22;7795;47.986;11.868;2022-09-17T10:12:47;14.10;74.80
15394;DHT22;7795;47.986;11.868;2022-09-17T10:15:25;14.10;74.80
15394;DHT22;7795;47.986;11.868;2022-09-17T10:18:10;14.00;74.70
15394;DHT22;7795;47.986;11.868;2022-09-17T10:20:48;14.00;74.80
15394;DHT22;7795;47.986;11.868;2022-09-17T10:23:14;14.00;74.90
15394;DHT22;7795;47.986;11.868;2022-09-17T10:25:42;14.00;75.10
15394;DHT22;7795;47.986;11.868;2022-09-17T10:28:28;14.00;75.40
15394;DHT22;7795;47.986;11.868;2022-09-17T10:30:55;14.00;75.40
15394;DHT22;7795;47.986;11.868;2022-09-17T10:33:25;14.00;75.70
15394;DHT22;7795;47.986;11.868;2022-09-17T10:35:57;14.00;75.90
15394;DHT22;7795;47.986;11.868;2022-09-17T10:38:32;14.00;76.00
15394;DHT22;7795;47.986;11.868;2022-09-17T10:41:16;14.00;76.10
15394;DHT22;7795;47.986;11.868;2022-09-17T10:43:42;14.10;76.40
15394;DHT22;7795;47.986;11.868;2022-09-17T10:46:14;14.10;75.70
15394;DHT22;7795;47.986;11.868;2022-09-17T10:48:45;14.10;75.60
15394;DHT22;7795;47.986;11.868;2022-09-17T10:51:21;14.10;75.70
15394;DHT22;7795;47.986;11.868;2022-09-17T10:54:05;14.00;75.50
15394;DHT22;7795;47.986;11.868;2022-09-17T10:56:34;14.00;75.30
15394;DHT22;7795;47.986;11.868;2022-09-17T10:59:23;14.00;75.60
15394;DHT22;7795;47.986;11.868;2022-09-17T11:01:57;14.00;75.40
15394;DHT22;7795;47.986;11.868;2022-09-17T11:04:40;14.00;75.80
15394;DHT22;7795;47.986;11.868;2022-09-17T11:07:24;14.00;76.10
15394;DHT22;7795;47.986;11.868;2022-09-17T11:10:00;14.00;76.40
15394;DHT22;7795;47.986;11.868;2022-09-17T11:12:34;13.90;76.10
15394;DHT22;7795;47.986;11.868;2022-09-17T11:15:20;13.90;75.90
15394;DHT22;7795;47.986;11.868;2022-09-17T11:18:02;13.90;75.70
15394;DHT22;7795;47.986;11.868;2022-09-17T11:20:54;13.80;75.70
15394;DHT22;7795;47.986;11.868;2022-09-17T11:23:45;13.80;76.10
15394;DHT22;7795;47.986;11.868;2022-09-17T11:26:26;13.70;76.30
15394;DHT22;7795;47.986;11.868;2022-09-17T11:29:01;13.70;76.70
15394;DHT22;7795;47.986;11.868;2022-09-17T11:31:35;13.70;76.70
15394;DHT22;7795;47.986;11.868;2022-09-17T11:34:27;13.70;76.70
15394;DHT22;7795;47.986;11.868;2022-09-17T11:36:59;13.70;76.90
15394;DHT22;7795;47.986;11.868;2022-09-17T11:39:32;13.70;76.90
15394;DHT22;7795;47.986;11.868;2022-09-17T11:42:01;13.70;77.30
15394;DHT22;7795;47.986;11.868;2022-09-17T11:44:30;13.70;77.40
15394;DHT22;7795;47.986;11.868;2022-09-17T11:47:03;13.80;77.40
15394;DHT22;7795;47.986;11.868;2022-09-17T11:49:38;13.80;77.30
15394;DHT22;7795;47.986;11.868;2022-09-17T11:52:10;13.80;77.20
15394;DHT22;7795;47.986;11.868;2022-09-17T11:54:44;13.80;77.10
15394;DHT22;7795;47.986;11.868;2022-09-17T11:57:15;13.80;77.20
15394;DHT22;7795;47.986;11.868;2022-09-17T11:59:45;13.80;77.20
15394;DHT22;7795;47.986;11.868;2022-09-17T12:02:17;13.80;77.10
15394;DHT22;7795;47.986;11.868;2022-09-17T12:04:50;13.80;77.10
15394;DHT22;7795;47.986;11.868;2022-09-17T12:07:27;13.90;77.30
15394;DHT22;7795;47.986;11.868;2022-09-17T12:09:59;13.90;77.50
15394;DHT22;7795;47.986;11.868;2022-09-17T12:12:28;13.90;77.30
15394;DHT22;7795;47.986;11.868;2022-09-17T12:14:57;14.00;77.10
15394;DHT22;7795;47.986;11.868;2022-09-17T12:17:30;14.00;76.70
15394;DHT22;7795;47.986;11.868;2022-09-17T12:20:02;14.00;76.60
15394;DHT22;7795;47.986;11.868;2022-09-17T12:22:35;14.00;76.70
15394;DHT22;7795;47.986;11.868;2022-09-17T12:25:02;14.00;76.90
15394;DHT22;7795;47.986;11.868;2022-09-17T12:27:35;14.00;77.80
15394;DHT22;7795;47.986;11.868;2022-09-17T12:30:09;14.00;77.00
15394;DHT22;7795;47.986;11.868;2022-09-17T12:32:57;14.10;76.90
15394;DHT22;7795;47.986;11.868;2022-09-17T12:38:31;14.20;76.90
15394;DHT22;7795;47.986;11.868;2022-09-17T12:41:06;14.20;76.90
15394;DHT22;7795;47.986;11.868;2022-09-17T12:43:45;14.30;76.90
15394;DHT22;7795;47.986;11.868;2022-09-17T12:46:36;14.30;76.50
15394;DHT22;7795;47.986;11.868;2022-09-17T12:49:43;14.40;76.10
15394;DHT22;7795;47.986;11.868;2022-09-17T12:52:15;14.40;76.10
15394;DHT22;7795;47.986;11.868;2022-09-17T12:57:54;14.60;76.10
15394;DHT22;7795;47.986;11.868;2022-09-17T13:00:23;14.60;75.70
15394;DHT22;7795;47.986;11.868;2022-09-17T13:02:54;14.70;75.60
15394;DHT22;7795;47.986;11.868;2022-09-17T13:12:10;14.80;75.50
15394;DHT22;7795;47.986;11.868;2022-09-17T13:14:59;14.80;74.70
15394;DHT22;7795;47.986;11.868;2022-09-17T13:17:31;14.70;74.70
15394;DHT22;7795;47.986;11.868;2022-09-17T13:20:02;14.60;74.70
15394;DHT22;7795;47.986;11.868;2022-09-17T13:22:31;14.50;74.80
15394;DHT22;7795;47.986;11.868;2022-09-17T13:25:04;14.40;75.10
15394;DHT22;7795;47.986;11.868;2022-09-17T13:27:33;14.40;75.30
15394;DHT22;7795;47.986;11.868;2022-09-17T13:30:03;14.30;75.60
15394;DHT22;7795;47.986;11.868;2022-09-17T13:32:47;14.30;75.80
15394;DHT22;7795;47.986;11.868;2022-09-17T13:35:48;14.30;76.30
15394;DHT22;7795;47.986;11.868;2022-09-17T13:38:14;14.30;76.90
15394;DHT22;7795;47.986;11.868;2022-09-17T13:40:41;14.30;77.00
15394;DHT22;7795;47.986;11.868;2022-09-17T13:43:10;14.30;77.10
15394;DHT22;7795;47.986;11.868;2022-09-17T13:46:08;14.30;76.90
15394;DHT22;7795;47.986;11.868;2022-09-17T13:48:42;14.40;76.70
15394;DHT22;7795;47.986;11.868;2022-09-17T13:51:47;14.40;76.80
15394;DHT22;7795;47.986;11.868;2022-09-17T13:54:14;14.40;77.00
15394;DHT22;7795;47.986;11.868;2022-09-17T13:56:43;14.40;76.70
15394;DHT22;7795;47.986;11.868;2022-09-17T13:59:16;14.50;76.10
15394;DHT22;7795;47.986;11.868;2022-09-17T14:02:00;14.40;75.80
15394;DHT22;7795;47.986;11.868;2022-09-17T14:04:34;14.50;76.10
15394;DHT22;7795;47.986;11.868;2022-09-17T14:07:29;14.40;76.10
15394;DHT22;7795;47.986;11.868;2022-09-17T14:09:56;14.40;76.00
15394;DHT22;7795;47.986;11.868;2022-09-17T14:12:51;14.40;76.00
15394;DHT22;7795;47.986;11.868;2022-09-17T14:15:55;14.40;75.90
15394;DHT22;7795;47.986;11.868;2022-09-17T14:21:29;14.30;75.90
15394;DHT22;7795;47.986;11.868;2022-09-17T14:23:57;14.20;76.00
15394;DHT22;7795;47.986;11.868;2022-09-17T14:26:44;14.10;76.10
15394;DHT22;7795;47.986;11.868;2022-09-17T14:29:22;14.10;76.40
15394;DHT22;7795;47.986;11.868;2022-09-17T14:31:50;14.10;76.50
15394;DHT22;7795;47.986;11.868;2022-09-17T14:34:20;14.10;76.70
15394;DHT22;7795;47.986;11.868;2022-09-17T14:36:47;14.00;77.10
15394;DHT22;7795;47.986;11.868;2022-09-17T14:39:18;14.10;77.40
15394;DHT22;7795;47.986;11.868;2022-09-17T14:41:45;14.10;78.00
15394;DHT22;7795;47.986;11.868;2022-09-17T14:44:14;14.10;77.70
15394;DHT22;7795;47.986;11.868;2022-09-17T14:46:48;14.10;77.60
15394;DHT22;7795;47.986;11.868;2022-09-17T14:49:20;14.20;77.70
15394;DHT22;7795;47.986;11.868;2022-09-17T14:51:47;14.20;77.60
15394;DHT22;7795;47.986;11.868;2022-09-17T14:54:18;14.20;77.60
15394;DHT22;7795;47.986;11.868;2022-09-17T14:56:58;14.30;77.60
15394;DHT22;7795;47.986;11.868;2022-09-17T14:59:35;14.30;77.70
15394;DHT22;7795;47.986;11.868;2022-09-17T15:02:02;14.30;77.40
15394;DHT22;7795;47.986;11.868;2022-09-17T15:04:29;14.30;77.20
15394;DHT22;7795;47.986;11.868;2022-09-17T15:07:06;14.40;77.40
15394;DHT22;7795;47.986;11.868;2022-09-17T15:09:32;14.40;78.20
15394;DHT22;7795;47.986;11.868;2022-09-17T15:11:59;14.40;77.20
15394;DHT22;7795;47.986;11.868;2022-09-17T15:14:27;14.40;76.90
15394;DHT22;7795;47.986;11.868;2022-09-17T15:16:55;14.40;76.70
15394;DHT22;7795;47.986;11.868;2022-09-17T15:19:23;14.40;76.70
15394;DHT22;7795;47.986;11.868;2022-09-17T15:21:56;14.40;77.30
15394;DHT22;7795;47.986;11.868;2022-09-17T15:24:33;14.50;77.10
15394;DHT22;7795;47.986;11.868;2022-09-17T15:27:08;14.50;77.00
15394;DHT22;7795;47.986;11.868;2022-09-17T15:29:38;14.50;76.90
15394;DHT22;7795;47.986;11.868;2022-09-17T15:32:05;14.50;77.00
15394;DHT22;7795;47.986;11.868;2022-09-17T15:34:31;14.50;77.10
15394;DHT22;7795;47.986;11.868;2022-09-17T15:37:05;14.50;76.90
15394;DHT22;7795;47.986;11.868;2022-09-17T15:39:38;14.50;76.60
15394;DHT22;7795;47.986;11.868;2022-09-17T15:42:04;14.50;76.60
15394;DHT22;7795;47.986;11.868;2022-09-17T15:44:30;14.40;76.60
15394;DHT22;7795;47.986;11.868;2022-09-17T15:50:11;14.40;76.40
15394;DHT22;7795;47.986;11.868;2022-09-17T15:52:39;14.40;76.60
15394;DHT22;7795;47.986;11.868;2022-09-17T15:57:46;14.30;76.40
15394;DHT22;7795;47.986;11.868;2022-09-17T16:00:13;14.20;75.80
15394;DHT22;7795;47.986;11.868;2022-09-17T16:02:39;14.20;75.30
15394;DHT22;7795;47.986;11.868;2022-09-17T16:05:43;14.10;74.80
15394;DHT22;7795;47.986;11.868;2022-09-17T16:08:21;14.10;74.00
15394;DHT22;7795;47.986;11.868;2022-09-17T16:10:47;13.90;74.30
15394;DHT22;7795;47.986;11.868;2022-09-17T16:13:13;13.80;74.50
15394;DHT22;7795;47.986;11.868;2022-09-17T16:15:39;13.70;74.70
15394;DHT22;7795;47.986;11.868;2022-09-17T16:18:05;13.60;74.80
15394;DHT22;7795;47.986;11.868;2022-09-17T16:20:31;13.60;74.90